sensor_id;sensor_type;location;lat;lon;timestamp;P1;durP1;ratioP1;P2;durP2;ratioP2
22752;SDS011;11543;43.144;24.684;2022-07-29T00:00:46;8.65;;;7.10;;
22752;SDS011;11543;43.144;24.684;2022-07-29T00:03:12;8.55;;;7.00;;
22752;SDS011;11543;43.144;24.684;2022-07-29T00:05:39;11.23;;;7.57;;
22752;SDS011;11543;43.144;24.684;2022-07-29T00:08:05;9.73;;;7.25;;
22752;SDS011;11543;43.144;24.684;2022-07-29T00:10:31;8.80;;;6.88;;
22752;SDS011;11543;43.144;24.684;2022-07-29T00:12:56;9.43;;;7.30;;
22752;SDS011;11543;43.144;24.684;2022-07-29T00:15:22;8.32;;;7.22;;
22752;SDS011;11543;43.144;24.684;2022-07-29T00:17:47;10.15;;;7.05;;
22752;SDS011;11543;43.144;24.684;2022-07-29T00:20:13;11.50;;;8.27;;
22752;SDS011;11543;43.144;24.684;2022-07-29T00:22:38;8.48;;;7.30;;
22752;SDS011;11543;43.144;24.684;2022-07-29T00:25:04;10.63;;;7.40;;
22752;SDS011;11543;43.144;24.684;2022-07-29T00:27:32;10.43;;;7.63;;
22752;SDS011;11543;43.144;24.684;2022-07-29T00:29:57;9.52;;;8.07;;
22752;SDS011;11543;43.144;24.684;2022-07-29T00:32:22;10.00;;;7.72;;
22752;SDS011;11543;43.144;24.684;2022-07-29T00:34:48;9.20;;;7.63;;
22752;SDS011;11543;43.144;24.684;2022-07-29T00:37:32;9.18;;;8.13;;
22752;SDS011;11543;43.144;24.684;2022-07-29T00:39:57;13.00;;;7.82;;
22752;SDS011;11543;43.144;24.684;2022-07-29T00:42:23;10.07;;;8.10;;
22752;SDS011;11543;43.144;24.684;2022-07-29T00:44:48;9.77;;;7.50;;
22752;SDS011;11543;43.144;24.684;2022-07-29T00:47:14;10.93;;;8.05;;
22752;SDS011;11543;43.144;24.684;2022-07-29T00:49:40;11.55;;;8.63;;
22752;SDS011;11543;43.144;24.684;2022-07-29T00:52:06;13.95;;;8.38;;
22752;SDS011;11543;43.144;24.684;2022-07-29T00:54:34;12.18;;;8.75;;
22752;SDS011;11543;43.144;24.684;2022-07-29T00:57:00;11.40;;;9.10;;
22752;SDS011;11543;43.144;24.684;2022-07-29T00:59:26;19.58;;;8.88;;
22752;SDS011;11543;43.144;24.684;2022-07-29T01:01:52;18.77;;;9.20;;
22752;SDS011;11543;43.144;24.684;2022-07-29T01:04:17;12.82;;;8.50;;
22752;SDS011;11543;43.144;24.684;2022-07-29T01:06:43;9.68;;;8.30;;
22752;SDS011;11543;43.144;24.684;2022-07-29T01:09:09;11.38;;;8.90;;
22752;SDS011;11543;43.144;24.684;2022-07-29T01:11:36;14.98;;;9.25;;
22752;SDS011;11543;43.144;24.684;2022-07-29T01:14:02;12.30;;;9.30;;
22752;SDS011;11543;43.144;24.684;2022-07-29T01:16:32;15.13;;;9.80;;
22752;SDS011;11543;43.144;24.684;2022-07-29T01:19:12;12.80;;;9.38;;
22752;SDS011;11543;43.144;24.684;2022-07-29T01:21:55;11.05;;;9.18;;
22752;SDS011;11543;43.144;24.684;2022-07-29T01:27:20;10.90;;;8.65;;
22752;SDS011;11543;43.144;24.684;2022-07-29T01:29:49;11.00;;;8.38;;
22752;SDS011;11543;43.144;24.684;2022-07-29T01:32:21;10.38;;;8.40;;
22752;SDS011;11543;43.144;24.684;2022-07-29T01:35:08;10.27;;;7.95;;
22752;SDS011;11543;43.144;24.684;2022-07-29T01:40:10;10.38;;;8.13;;
22752;SDS011;11543;43.144;24.684;2022-07-29T01:42:45;13.15;;;8.50;;
22752;SDS011;11543;43.144;24.684;2022-07-29T01:45:15;11.05;;;7.47;;
22752;SDS011;11543;43.144;24.684;2022-07-29T01:47:56;8.80;;;7.50;;
22752;SDS011;11543;43.144;24.684;2022-07-29T01:50:35;8.63;;;7.03;;
22752;SDS011;11543;43.144;24.684;2022-07-29T01:53:06;9.40;;;7.45;;
22752;SDS011;11543;43.144;24.684;2022-07-29T01:55:36;10.02;;;8.30;;
22752;SDS011;11543;43.144;24.684;2022-07-29T01:58:05;10.60;;;8.93;;
22752;SDS011;11543;43.144;24.684;2022-07-29T02:00:32;13.27;;;9.85;;
22752;SDS011;11543;43.144;24.684;2022-07-29T02:03:00;11.88;;;9.43;;
22752;SDS011;11543;43.144;24.684;2022-07-29T02:05:29;11.10;;;9.68;;
22752;SDS011;11543;43.144;24.684;2022-07-29T02:07:55;14.82;;;9.55;;
22752;SDS011;11543;43.144;24.684;2022-07-29T02:10:25;13.02;;;9.50;;
22752;SDS011;11543;43.144;24.684;2022-07-29T02:12:54;12.35;;;9.65;;
22752;SDS011;11543;43.144;24.684;2022-07-29T02:15:22;15.45;;;10.25;;
22752;SDS011;11543;43.144;24.684;2022-07-29T02:17:51;14.48;;;11.10;;
22752;SDS011;11543;43.144;24.684;2022-07-29T02:20:25;13.80;;;10.45;;
22752;SDS011;11543;43.144;24.684;2022-07-29T02:22:52;13.90;;;10.55;;
22752;SDS011;11543;43.144;24.684;2022-07-29T02:25:21;12.23;;;10.23;;
22752;SDS011;11543;43.144;24.684;2022-07-29T02:27:49;12.82;;;10.55;;
22752;SDS011;11543;43.144;24.684;2022-07-29T02:30:16;15.00;;;10.65;;
22752;SDS011;11543;43.144;24.684;2022-07-29T02:32:43;15.02;;;10.18;;
22752;SDS011;11543;43.144;24.684;2022-07-29T02:35:10;14.38;;;10.60;;
22752;SDS011;11543;43.144;24.684;2022-07-29T02:37:39;15.63;;;10.90;;
22752;SDS011;11543;43.144;24.684;2022-07-29T02:40:06;12.85;;;10.23;;
22752;SDS011;11543;43.144;24.684;2022-07-29T02:42:35;12.23;;;10.65;;
22752;SDS011;11543;43.144;24.684;2022-07-29T02:45:02;16.08;;;11.25;;
22752;SDS011;11543;43.144;24.684;2022-07-29T02:47:42;13.30;;;11.18;;
22752;SDS011;11543;43.144;24.684;2022-07-29T02:50:13;13.60;;;9.93;;
22752;SDS011;11543;43.144;24.684;2022-07-29T02:55:29;13.85;;;10.27;;
22752;SDS011;11543;43.144;24.684;2022-07-29T02:58:00;11.90;;;10.18;;
22752;SDS011;11543;43.144;24.684;2022-07-29T03:00:28;10.48;;;9.38;;
22752;SDS011;11543;43.144;24.684;2022-07-29T03:02:56;12.13;;;9.23;;
22752;SDS011;11543;43.144;24.684;2022-07-29T03:05:23;11.82;;;9.18;;
22752;SDS011;11543;43.144;24.684;2022-07-29T03:07:51;9.73;;;8.57;;
22752;SDS011;11543;43.144;24.684;2022-07-29T03:10:20;15.57;;;10.20;;
22752;SDS011;11543;43.144;24.684;2022-07-29T03:12:47;12.25;;;10.10;;
22752;SDS011;11543;43.144;24.684;2022-07-29T03:15:12;12.65;;;10.25;;
22752;SDS011;11543;43.144;24.684;2022-07-29T03:17:39;13.73;;;9.23;;
22752;SDS011;11543;43.144;24.684;2022-07-29T03:20:04;11.80;;;9.13;;
22752;SDS011;11543;43.144;24.684;2022-07-29T03:22:32;10.90;;;8.70;;
22752;SDS011;11543;43.144;24.684;2022-07-29T03:24:58;11.40;;;8.30;;
22752;SDS011;11543;43.144;24.684;2022-07-29T03:27:32;9.90;;;8.30;;
22752;SDS011;11543;43.144;24.684;2022-07-29T03:29:59;10.00;;;7.80;;
22752;SDS011;11543;43.144;24.684;2022-07-29T03:32:24;10.38;;;7.28;;
22752;SDS011;11543;43.144;24.684;2022-07-29T03:34:50;9.82;;;7.70;;
22752;SDS011;11543;43.144;24.684;2022-07-29T03:37:15;11.40;;;8.10;;
22752;SDS011;11543;43.144;24.684;2022-07-29T03:39:41;10.98;;;7.65;;
22752;SDS011;11543;43.144;24.684;2022-07-29T03:42:10;9.85;;;7.22;;
22752;SDS011;11543;43.144;24.684;2022-07-29T03:44:39;10.65;;;7.43;;
22752;SDS011;11543;43.144;24.684;2022-07-29T03:47:07;9.35;;;7.38;;
22752;SDS011;11543;43.144;24.684;2022-07-29T03:49:36;11.02;;;7.65;;
22752;SDS011;11543;43.144;24.684;2022-07-29T03:52:03;8.45;;;7.00;;
22752;SDS011;11543;43.144;24.684;2022-07-29T03:54:29;10.60;;;7.00;;
22752;SDS011;11543;43.144;24.684;2022-07-29T03:56:55;9.57;;;7.03;;
22752;SDS011;11543;43.144;24.684;2022-07-29T03:59:24;9.80;;;7.30;;
22752;SDS011;11543;43.144;24.684;2022-07-29T04:01:51;8.57;;;7.32;;
22752;SDS011;11543;43.144;24.684;2022-07-29T04:04:17;9.88;;;7.72;;
22752;SDS011;11543;43.144;24.684;2022-07-29T04:06:43;7.93;;;6.85;;
22752;SDS011;11543;43.144;24.684;2022-07-29T04:09:10;10.07;;;6.95;;
22752;SDS011;11543;43.144;24.684;2022-07-29T04:11:37;11.10;;;7.00;;
22752;SDS011;11543;43.144;24.684;2022-07-29T04:14:03;11.32;;;7.65;;
22752;SDS011;11543;43.144;24.684;2022-07-29T04:16:29;11.23;;;7.10;;
22752;SDS011;11543;43.144;24.684;2022-07-29T04:18:55;10.23;;;7.00;;
22752;SDS011;11543;43.144;24.684;2022-07-29T04:21:20;10.82;;;7.10;;
22752;SDS011;11543;43.144;24.684;2022-07-29T04:23:46;11.23;;;7.10;;
22752;SDS011;11543;43.144;24.684;2022-07-29T04:26:15;9.45;;;7.10;;
22752;SDS011;11543;43.144;24.684;2022-07-29T04:28:44;9.20;;;6.90;;
22752;SDS011;11543;43.144;24.684;2022-07-29T04:31:10;8.10;;;6.97;;
22752;SDS011;11543;43.144;24.684;2022-07-29T04:33:36;9.23;;;6.80;;
22752;SDS011;11543;43.144;24.684;2022-07-29T04:36:02;7.93;;;6.70;;
22752;SDS011;11543;43.144;24.684;2022-07-29T04:38:27;11.52;;;7.00;;
22752;SDS011;11543;43.144;24.684;2022-07-29T04:40:53;15.27;;;7.35;;
22752;SDS011;11543;43.144;24.684;2022-07-29T04:43:18;11.35;;;6.82;;
22752;SDS011;11543;43.144;24.684;2022-07-29T04:45:44;9.75;;;6.72;;
22752;SDS011;11543;43.144;24.684;2022-07-29T04:48:09;8.02;;;6.32;;
22752;SDS011;11543;43.144;24.684;2022-07-29T04:50:37;8.77;;;6.72;;
22752;SDS011;11543;43.144;24.684;2022-07-29T04:53:03;7.95;;;6.63;;
22752;SDS011;11543;43.144;24.684;2022-07-29T04:55:29;8.95;;;6.40;;
22752;SDS011;11543;43.144;24.684;2022-07-29T04:57:54;10.32;;;6.78;;
22752;SDS011;11543;43.144;24.684;2022-07-29T05:00:20;8.95;;;7.20;;
22752;SDS011;11543;43.144;24.684;2022-07-29T05:02:45;8.65;;;6.93;;
22752;SDS011;11543;43.144;24.684;2022-07-29T05:05:11;8.55;;;6.90;;
22752;SDS011;11543;43.144;24.684;2022-07-29T05:07:36;10.57;;;7.47;;
22752;SDS011;11543;43.144;24.684;2022-07-29T05:10:02;11.32;;;6.78;;
22752;SDS011;11543;43.144;24.684;2022-07-29T05:12:28;8.10;;;6.40;;
22752;SDS011;11543;43.144;24.684;2022-07-29T05:14:53;10.65;;;7.03;;
22752;SDS011;11543;43.144;24.684;2022-07-29T05:17:19;12.40;;;7.35;;
22752;SDS011;11543;43.144;24.684;2022-07-29T05:19:45;11.77;;;6.43;;
22752;SDS011;11543;43.144;24.684;2022-07-29T05:22:10;9.00;;;6.50;;
22752;SDS011;11543;43.144;24.684;2022-07-29T05:24:35;8.25;;;6.60;;
22752;SDS011;11543;43.144;24.684;2022-07-29T05:27:01;8.88;;;6.68;;
22752;SDS011;11543;43.144;24.684;2022-07-29T05:29:26;12.68;;;7.13;;
22752;SDS011;11543;43.144;24.684;2022-07-29T05:31:52;9.23;;;6.80;;
22752;SDS011;11543;43.144;24.684;2022-07-29T05:34:18;9.43;;;6.88;;
22752;SDS011;11543;43.144;24.684;2022-07-29T05:36:44;8.63;;;7.10;;
22752;SDS011;11543;43.144;24.684;2022-07-29T05:39:10;10.98;;;7.13;;
22752;SDS011;11543;43.144;24.684;2022-07-29T05:41:36;9.88;;;7.47;;
22752;SDS011;11543;43.144;24.684;2022-07-29T05:44:01;9.63;;;7.45;;
22752;SDS011;11543;43.144;24.684;2022-07-29T05:46:27;10.85;;;6.85;;
22752;SDS011;11543;43.144;24.684;2022-07-29T05:48:53;12.25;;;6.95;;
22752;SDS011;11543;43.144;24.684;2022-07-29T05:51:19;10.48;;;7.10;;
22752;SDS011;11543;43.144;24.684;2022-07-29T05:53:44;8.15;;;7.00;;
22752;SDS011;11543;43.144;24.684;2022-07-29T05:56:10;10.98;;;7.28;;
22752;SDS011;11543;43.144;24.684;2022-07-29T05:58:36;9.98;;;8.05;;
22752;SDS011;11543;43.144;24.684;2022-07-29T06:01:01;9.73;;;7.35;;
22752;SDS011;11543;43.144;24.684;2022-07-29T06:03:27;10.93;;;7.35;;
22752;SDS011;11543;43.144;24.684;2022-07-29T06:08:38;10.80;;;7.70;;
22752;SDS011;11543;43.144;24.684;2022-07-29T06:11:05;9.73;;;7.95;;
22752;SDS011;11543;43.144;24.684;2022-07-29T06:13:31;9.70;;;7.97;;
22752;SDS011;11543;43.144;24.684;2022-07-29T06:15:56;9.13;;;7.75;;
22752;SDS011;11543;43.144;24.684;2022-07-29T06:18:22;11.35;;;7.80;;
22752;SDS011;11543;43.144;24.684;2022-07-29T06:20:52;9.43;;;7.85;;
22752;SDS011;11543;43.144;24.684;2022-07-29T06:23:18;10.85;;;7.10;;
22752;SDS011;11543;43.144;24.684;2022-07-29T06:25:44;9.90;;;7.32;;
22752;SDS011;11543;43.144;24.684;2022-07-29T06:28:10;8.90;;;7.65;;
22752;SDS011;11543;43.144;24.684;2022-07-29T06:30:36;10.35;;;7.20;;
22752;SDS011;11543;43.144;24.684;2022-07-29T06:33:01;11.13;;;7.75;;
22752;SDS011;11543;43.144;24.684;2022-07-29T06:35:28;8.18;;;7.20;;
22752;SDS011;11543;43.144;24.684;2022-07-29T06:37:53;7.78;;;6.97;;
22752;SDS011;11543;43.144;24.684;2022-07-29T06:40:19;8.95;;;7.00;;
22752;SDS011;11543;43.144;24.684;2022-07-29T06:43:03;9.82;;;7.43;;
22752;SDS011;11543;43.144;24.684;2022-07-29T06:45:29;10.30;;;7.13;;
22752;SDS011;11543;43.144;24.684;2022-07-29T06:47:54;9.02;;;7.50;;
22752;SDS011;11543;43.144;24.684;2022-07-29T06:50:20;11.38;;;7.53;;
22752;SDS011;11543;43.144;24.684;2022-07-29T06:52:46;9.70;;;6.97;;
22752;SDS011;11543;43.144;24.684;2022-07-29T06:55:12;8.43;;;6.60;;
22752;SDS011;11543;43.144;24.684;2022-07-29T06:57:38;9.52;;;7.10;;
22752;SDS011;11543;43.144;24.684;2022-07-29T07:00:04;12.45;;;7.82;;
22752;SDS011;11543;43.144;24.684;2022-07-29T07:02:30;8.63;;;6.95;;
22752;SDS011;11543;43.144;24.684;2022-07-29T07:04:55;8.77;;;6.80;;
22752;SDS011;11543;43.144;24.684;2022-07-29T07:07:21;7.70;;;6.55;;
22752;SDS011;11543;43.144;24.684;2022-07-29T07:09:46;12.18;;;7.43;;
22752;SDS011;11543;43.144;24.684;2022-07-29T07:12:12;10.80;;;6.35;;
22752;SDS011;11543;43.144;24.684;2022-07-29T07:14:38;11.30;;;6.55;;
22752;SDS011;11543;43.144;24.684;2022-07-29T07:17:04;10.65;;;6.90;;
22752;SDS011;11543;43.144;24.684;2022-07-29T07:19:31;9.63;;;6.85;;
22752;SDS011;11543;43.144;24.684;2022-07-29T07:21:57;9.13;;;6.38;;
22752;SDS011;11543;43.144;24.684;2022-07-29T07:24:22;10.98;;;7.00;;
22752;SDS011;11543;43.144;24.684;2022-07-29T07:26:48;10.57;;;6.63;;
22752;SDS011;11543;43.144;24.684;2022-07-29T07:29:13;8.48;;;6.95;;
22752;SDS011;11543;43.144;24.684;2022-07-29T07:31:39;11.00;;;7.10;;
22752;SDS011;11543;43.144;24.684;2022-07-29T07:34:04;12.88;;;6.60;;
22752;SDS011;11543;43.144;24.684;2022-07-29T07:36:30;8.65;;;6.80;;
22752;SDS011;11543;43.144;24.684;2022-07-29T07:38:55;8.98;;;6.28;;
22752;SDS011;11543;43.144;24.684;2022-07-29T07:41:21;8.60;;;6.45;;
22752;SDS011;11543;43.144;24.684;2022-07-29T07:43:46;8.68;;;6.18;;
22752;SDS011;11543;43.144;24.684;2022-07-29T07:46:12;7.10;;;6.10;;
22752;SDS011;11543;43.144;24.684;2022-07-29T07:48:38;7.55;;;6.50;;
22752;SDS011;11543;43.144;24.684;2022-07-29T07:51:03;10.23;;;6.20;;
22752;SDS011;11543;43.144;24.684;2022-07-29T07:53:29;8.27;;;6.30;;
22752;SDS011;11543;43.144;24.684;2022-07-29T07:55:55;7.60;;;6.40;;
22752;SDS011;11543;43.144;24.684;2022-07-29T07:58:20;8.40;;;6.47;;
22752;SDS011;11543;43.144;24.684;2022-07-29T08:00:46;12.20;;;6.30;;
22752;SDS011;11543;43.144;24.684;2022-07-29T08:03:12;10.73;;;6.40;;
22752;SDS011;11543;43.144;24.684;2022-07-29T08:05:38;8.02;;;5.97;;
22752;SDS011;11543;43.144;24.684;2022-07-29T08:08:05;8.63;;;6.28;;
22752;SDS011;11543;43.144;24.684;2022-07-29T08:10:30;7.80;;;6.28;;
22752;SDS011;11543;43.144;24.684;2022-07-29T08:13:15;9.02;;;6.32;;
22752;SDS011;11543;43.144;24.684;2022-07-29T08:15:40;9.18;;;6.18;;
22752;SDS011;11543;43.144;24.684;2022-07-29T08:18:07;8.77;;;6.20;;
22752;SDS011;11543;43.144;24.684;2022-07-29T08:20:33;8.68;;;6.13;;
22752;SDS011;11543;43.144;24.684;2022-07-29T08:23:00;6.63;;;5.93;;
22752;SDS011;11543;43.144;24.684;2022-07-29T08:25:26;10.98;;;6.28;;
22752;SDS011;11543;43.144;24.684;2022-07-29T08:27:52;12.00;;;5.88;;
22752;SDS011;11543;43.144;24.684;2022-07-29T08:30:17;8.95;;;5.85;;
22752;SDS011;11543;43.144;24.684;2022-07-29T08:32:43;9.02;;;5.32;;
22752;SDS011;11543;43.144;24.684;2022-07-29T08:35:08;8.25;;;5.93;;
22752;SDS011;11543;43.144;24.684;2022-07-29T08:37:34;8.00;;;5.45;;
22752;SDS011;11543;43.144;24.684;2022-07-29T08:39:59;9.45;;;5.72;;
22752;SDS011;11543;43.144;24.684;2022-07-29T08:42:25;9.50;;;5.70;;
22752;SDS011;11543;43.144;24.684;2022-07-29T08:44:50;9.85;;;5.50;;
22752;SDS011;11543;43.144;24.684;2022-07-29T08:47:16;6.88;;;5.82;;
22752;SDS011;11543;43.144;24.684;2022-07-29T08:49:42;9.48;;;5.93;;
22752;SDS011;11543;43.144;24.684;2022-07-29T08:52:10;6.03;;;5.32;;
22752;SDS011;11543;43.144;24.684;2022-07-29T08:54:36;11.07;;;5.78;;
22752;SDS011;11543;43.144;24.684;2022-07-29T08:57:10;6.47;;;4.90;;
22752;SDS011;11543;43.144;24.684;2022-07-29T08:59:40;9.00;;;5.43;;
22752;SDS011;11543;43.144;24.684;2022-07-29T09:02:13;6.57;;;5.10;;
22752;SDS011;11543;43.144;24.684;2022-07-29T09:04:44;6.20;;;5.10;;
22752;SDS011;11543;43.144;24.684;2022-07-29T09:07:10;6.32;;;4.53;;
22752;SDS011;11543;43.144;24.684;2022-07-29T09:09:44;6.28;;;4.78;;
22752;SDS011;11543;43.144;24.684;2022-07-29T09:12:11;7.38;;;4.40;;
22752;SDS011;11543;43.144;24.684;2022-07-29T09:14:38;6.53;;;4.55;;
22752;SDS011;11543;43.144;24.684;2022-07-29T09:17:04;9.15;;;4.20;;
22752;SDS011;11543;43.144;24.684;2022-07-29T09:19:31;6.63;;;4.55;;
22752;SDS011;11543;43.144;24.684;2022-07-29T09:22:01;5.20;;;4.45;;
22752;SDS011;11543;43.144;24.684;2022-07-29T09:24:45;6.00;;;4.30;;
22752;SDS011;11543;43.144;24.684;2022-07-29T09:27:25;4.75;;;4.25;;
22752;SDS011;11543;43.144;24.684;2022-07-29T09:30:09;4.88;;;4.20;;
22752;SDS011;11543;43.144;24.684;2022-07-29T09:32:57;5.35;;;4.20;;
22752;SDS011;11543;43.144;24.684;2022-07-29T09:35:26;5.53;;;3.55;;
22752;SDS011;11543;43.144;24.684;2022-07-29T09:37:53;6.00;;;4.15;;
22752;SDS011;11543;43.144;24.684;2022-07-29T09:40:20;5.15;;;4.00;;
22752;SDS011;11543;43.144;24.684;2022-07-29T09:42:51;4.50;;;3.88;;
22752;SDS011;11543;43.144;24.684;2022-07-29T09:45:28;5.57;;;4.00;;
22752;SDS011;11543;43.144;24.684;2022-07-29T09:47:56;10.20;;;4.00;;
22752;SDS011;11543;43.144;24.684;2022-07-29T09:50:40;6.88;;;4.18;;
22752;SDS011;11543;43.144;24.684;2022-07-29T09:53:07;7.85;;;3.83;;
22752;SDS011;11543;43.144;24.684;2022-07-29T09:55:45;7.30;;;4.10;;
22752;SDS011;11543;43.144;24.684;2022-07-29T09:58:20;6.30;;;3.90;;
22752;SDS011;11543;43.144;24.684;2022-07-29T10:00:47;6.25;;;3.78;;
22752;SDS011;11543;43.144;24.684;2022-07-29T10:03:15;4.32;;;3.90;;
22752;SDS011;11543;43.144;24.684;2022-07-29T10:05:41;4.18;;;3.78;;
22752;SDS011;11543;43.144;24.684;2022-07-29T10:08:07;5.28;;;3.80;;
22752;SDS011;11543;43.144;24.684;2022-07-29T10:10:35;6.75;;;3.53;;
22752;SDS011;11543;43.144;24.684;2022-07-29T10:15:30;4.43;;;4.00;;
22752;SDS011;11543;43.144;24.684;2022-07-29T10:17:59;7.18;;;4.00;;
22752;SDS011;11543;43.144;24.684;2022-07-29T10:20:25;4.55;;;3.92;;
22752;SDS011;11543;43.144;24.684;2022-07-29T10:22:52;4.45;;;3.65;;
22752;SDS011;11543;43.144;24.684;2022-07-29T10:25:19;5.90;;;4.10;;
22752;SDS011;11543;43.144;24.684;2022-07-29T10:27:45;4.30;;;3.90;;
22752;SDS011;11543;43.144;24.684;2022-07-29T10:30:12;5.35;;;3.90;;
22752;SDS011;11543;43.144;24.684;2022-07-29T10:38:44;6.68;;;3.72;;
22752;SDS011;11543;43.144;24.684;2022-07-29T10:41:29;5.68;;;3.90;;
22752;SDS011;11543;43.144;24.684;2022-07-29T10:44:17;6.60;;;3.95;;
22752;SDS011;11543;43.144;24.684;2022-07-29T10:46:47;4.80;;;3.50;;
22752;SDS011;11543;43.144;24.684;2022-07-29T10:49:17;5.20;;;4.10;;
22752;SDS011;11543;43.144;24.684;2022-07-29T10:54:15;4.10;;;3.40;;
22752;SDS011;11543;43.144;24.684;2022-07-29T10:56:42;4.13;;;3.67;;
22752;SDS011;11543;43.144;24.684;2022-07-29T11:01:45;5.07;;;3.85;;
22752;SDS011;11543;43.144;24.684;2022-07-29T11:04:14;4.10;;;3.70;;
22752;SDS011;11543;43.144;24.684;2022-07-29T11:09:34;5.28;;;3.90;;
22752;SDS011;11543;43.144;24.684;2022-07-29T11:12:00;4.38;;;3.75;;
22752;SDS011;11543;43.144;24.684;2022-07-29T11:17:19;5.38;;;3.90;;
22752;SDS011;11543;43.144;24.684;2022-07-29T11:19:45;5.93;;;3.80;;
22752;SDS011;11543;43.144;24.684;2022-07-29T11:22:11;5.43;;;3.90;;
22752;SDS011;11543;43.144;24.684;2022-07-29T11:25:14;5.53;;;3.83;;
22752;SDS011;11543;43.144;24.684;2022-07-29T11:27:41;4.00;;;3.60;;
22752;SDS011;11543;43.144;24.684;2022-07-29T11:30:07;4.47;;;3.83;;
22752;SDS011;11543;43.144;24.684;2022-07-29T11:32:40;6.68;;;3.90;;
22752;SDS011;11543;43.144;24.684;2022-07-29T11:35:17;6.25;;;4.20;;
22752;SDS011;11543;43.144;24.684;2022-07-29T11:37:46;7.45;;;3.78;;
22752;SDS011;11543;43.144;24.684;2022-07-29T11:40:12;6.18;;;3.90;;
22752;SDS011;11543;43.144;24.684;2022-07-29T11:42:41;4.30;;;3.60;;
22752;SDS011;11543;43.144;24.684;2022-07-29T11:45:14;6.70;;;3.63;;
22752;SDS011;11543;43.144;24.684;2022-07-29T11:50:11;6.50;;;3.75;;
22752;SDS011;11543;43.144;24.684;2022-07-29T11:52:39;4.30;;;3.75;;
22752;SDS011;11543;43.144;24.684;2022-07-29T11:55:11;7.07;;;3.90;;
22752;SDS011;11543;43.144;24.684;2022-07-29T11:57:56;5.25;;;4.10;;
22752;SDS011;11543;43.144;24.684;2022-07-29T12:00:32;5.70;;;4.50;;
22752;SDS011;11543;43.144;24.684;2022-07-29T12:03:07;6.40;;;3.90;;
22752;SDS011;11543;43.144;24.684;2022-07-29T12:08:13;5.65;;;4.32;;
22752;SDS011;11543;43.144;24.684;2022-07-29T12:10:39;7.60;;;3.60;;
22752;SDS011;11543;43.144;24.684;2022-07-29T12:13:06;4.85;;;3.50;;
22752;SDS011;11543;43.144;24.684;2022-07-29T12:15:32;5.32;;;4.00;;
22752;SDS011;11543;43.144;24.684;2022-07-29T12:17:58;7.38;;;3.72;;
22752;SDS011;11543;43.144;24.684;2022-07-29T12:20:24;4.55;;;3.80;;
22752;SDS011;11543;43.144;24.684;2022-07-29T12:22:52;4.43;;;4.00;;
22752;SDS011;11543;43.144;24.684;2022-07-29T12:25:18;7.00;;;4.10;;
22752;SDS011;11543;43.144;24.684;2022-07-29T12:27:45;6.65;;;4.25;;
22752;SDS011;11543;43.144;24.684;2022-07-29T12:30:11;4.25;;;3.83;;
22752;SDS011;11543;43.144;24.684;2022-07-29T12:32:39;6.65;;;4.20;;
22752;SDS011;11543;43.144;24.684;2022-07-29T12:35:06;6.68;;;3.75;;
22752;SDS011;11543;43.144;24.684;2022-07-29T12:37:36;7.50;;;4.00;;
22752;SDS011;11543;43.144;24.684;2022-07-29T12:40:03;5.38;;;3.67;;
22752;SDS011;11543;43.144;24.684;2022-07-29T12:42:30;5.13;;;3.60;;
22752;SDS011;11543;43.144;24.684;2022-07-29T12:44:55;5.40;;;3.88;;
22752;SDS011;11543;43.144;24.684;2022-07-29T12:47:21;7.53;;;3.60;;
22752;SDS011;11543;43.144;24.684;2022-07-29T12:49:47;7.63;;;4.20;;
22752;SDS011;11543;43.144;24.684;2022-07-29T12:52:23;4.90;;;3.58;;
22752;SDS011;11543;43.144;24.684;2022-07-29T12:54:56;6.82;;;3.63;;
22752;SDS011;11543;43.144;24.684;2022-07-29T12:57:22;3.90;;;3.33;;
22752;SDS011;11543;43.144;24.684;2022-07-29T13:00:07;8.35;;;3.65;;
22752;SDS011;11543;43.144;24.684;2022-07-29T13:02:37;5.65;;;3.55;;
22752;SDS011;11543;43.144;24.684;2022-07-29T13:05:03;6.10;;;3.90;;
22752;SDS011;11543;43.144;24.684;2022-07-29T13:07:32;5.15;;;3.50;;
22752;SDS011;11543;43.144;24.684;2022-07-29T13:10:16;4.43;;;3.50;;
22752;SDS011;11543;43.144;24.684;2022-07-29T13:15:28;5.35;;;3.70;;
22752;SDS011;11543;43.144;24.684;2022-07-29T13:17:54;5.13;;;3.45;;
22752;SDS011;11543;43.144;24.684;2022-07-29T13:20:23;5.97;;;3.70;;
22752;SDS011;11543;43.144;24.684;2022-07-29T13:22:50;5.68;;;3.90;;
22752;SDS011;11543;43.144;24.684;2022-07-29T13:25:23;7.88;;;3.90;;
22752;SDS011;11543;43.144;24.684;2022-07-29T13:27:49;5.35;;;3.60;;
22752;SDS011;11543;43.144;24.684;2022-07-29T13:30:15;5.47;;;3.35;;
22752;SDS011;11543;43.144;24.684;2022-07-29T13:32:40;5.82;;;3.50;;
22752;SDS011;11543;43.144;24.684;2022-07-29T13:35:07;3.92;;;3.35;;
22752;SDS011;11543;43.144;24.684;2022-07-29T13:37:34;4.50;;;3.20;;
22752;SDS011;11543;43.144;24.684;2022-07-29T13:40:03;5.80;;;3.40;;
22752;SDS011;11543;43.144;24.684;2022-07-29T13:42:31;5.53;;;3.85;;
22752;SDS011;11543;43.144;24.684;2022-07-29T13:44:57;4.88;;;3.35;;
22752;SDS011;11543;43.144;24.684;2022-07-29T13:47:23;7.78;;;3.33;;
22752;SDS011;11543;43.144;24.684;2022-07-29T13:49:49;4.15;;;3.15;;
22752;SDS011;11543;43.144;24.684;2022-07-29T13:52:15;7.00;;;2.85;;
22752;SDS011;11543;43.144;24.684;2022-07-29T13:54:41;5.15;;;2.80;;
22752;SDS011;11543;43.144;24.684;2022-07-29T13:57:07;5.50;;;3.17;;
22752;SDS011;11543;43.144;24.684;2022-07-29T13:59:32;5.20;;;2.80;;
22752;SDS011;11543;43.144;24.684;2022-07-29T14:01:58;4.55;;;2.80;;
22752;SDS011;11543;43.144;24.684;2022-07-29T14:04:24;3.00;;;2.60;;
22752;SDS011;11543;43.144;24.684;2022-07-29T14:06:50;3.65;;;2.90;;
22752;SDS011;11543;43.144;24.684;2022-07-29T14:09:16;3.70;;;2.67;;
22752;SDS011;11543;43.144;24.684;2022-07-29T14:11:42;7.60;;;3.08;;
22752;SDS011;11543;43.144;24.684;2022-07-29T14:14:07;4.72;;;2.60;;
22752;SDS011;11543;43.144;24.684;2022-07-29T14:16:35;4.97;;;2.60;;
22752;SDS011;11543;43.144;24.684;2022-07-29T14:19:01;5.45;;;2.53;;
22752;SDS011;11543;43.144;24.684;2022-07-29T14:21:27;4.65;;;2.70;;
22752;SDS011;11543;43.144;24.684;2022-07-29T14:23:52;3.65;;;2.75;;
22752;SDS011;11543;43.144;24.684;2022-07-29T14:26:19;5.25;;;2.70;;
22752;SDS011;11543;43.144;24.684;2022-07-29T14:28:46;3.75;;;2.50;;
22752;SDS011;11543;43.144;24.684;2022-07-29T14:31:12;7.40;;;2.80;;
22752;SDS011;11543;43.144;24.684;2022-07-29T14:33:37;3.50;;;2.40;;
22752;SDS011;11543;43.144;24.684;2022-07-29T14:36:03;4.82;;;2.22;;
22752;SDS011;11543;43.144;24.684;2022-07-29T14:38:28;4.57;;;2.30;;
22752;SDS011;11543;43.144;24.684;2022-07-29T14:40:54;4.75;;;2.10;;
22752;SDS011;11543;43.144;24.684;2022-07-29T14:43:19;3.55;;;2.20;;
22752;SDS011;11543;43.144;24.684;2022-07-29T14:45:45;4.57;;;2.13;;
22752;SDS011;11543;43.144;24.684;2022-07-29T14:48:10;4.07;;;2.15;;
22752;SDS011;11543;43.144;24.684;2022-07-29T14:50:36;4.10;;;2.10;;
22752;SDS011;11543;43.144;24.684;2022-07-29T14:53:02;3.50;;;2.15;;
22752;SDS011;11543;43.144;24.684;2022-07-29T14:55:28;3.17;;;2.20;;
22752;SDS011;11543;43.144;24.684;2022-07-29T14:57:54;2.58;;;2.20;;
22752;SDS011;11543;43.144;24.684;2022-07-29T15:00:20;3.33;;;2.38;;
22752;SDS011;11543;43.144;24.684;2022-07-29T15:02:46;4.95;;;2.22;;
22752;SDS011;11543;43.144;24.684;2022-07-29T15:05:12;3.97;;;2.63;;
22752;SDS011;11543;43.144;24.684;2022-07-29T15:07:37;2.92;;;2.20;;
22752;SDS011;11543;43.144;24.684;2022-07-29T15:10:03;3.75;;;2.15;;